Terminal Aerodrome Forecast
Issued by NWS Medford, OR

Home | Current Version | Previous Version | Text Only | Print | Product List | Glossary On
Versions: 1 2 3 4 5 6 7 8 9 10 11 12 13 14 15 16 17 18 19 20
000
FTUS46 KMFR 180039 AAA
TAFMFR
TAF AMD
KMFR 180039Z 1801/1824 14015G25KT P6SM BKN080 OVC100 WS020/21040KT
     FM180800 17006KT P6SM -RA SCT025 OVC050
     FM181500 21006KT P6SM -SHRA BKN030 OVC050
     FM182000 24006KT P6SM -SHRA BKN035 OVC060=

USA.gov is the U.S. government's official web portal to all federal, state and local government web resources and services.